Millington Regional Jetport Airport Millington US
ICAO: KNQA
IATA: NQA
Category: Medium
Scheduled Services: No

Elevation: 320 ft
TransAlt. 18000 ft.

Airport Communications:
MEMPHIS APP:119.1
AWOS 3:118.925
CTAF:120.25
MEMPHIS DEP:124.15
GND:121.375
TWR:120.25
UNICOM:122.95

KNQA Zoom In..

If you have problems with the map follow the link
https://www.worldairports.se/pages/airport.php?
ICAO=KNQA

Runways:

(A) RW 04 length 8000 ft width 200 ft
---- / hdg 39

(B) RW 22 length 8000 ft width 200 ft
ILS 109.75 / hdg 219

Location; KNQA
Day. 21 / Time. 17.50 Zulu
* Altimeter: 30.36
* Temperature: 12° c. 53.6°f.
* Wind from: 090° Speed 06 kn.
Dewpoint: -02° c.
Visibility: 10 Statute Miles.
Clouds: Clear (automated report).

KNQA 211750Z 09006KT 10SM CLR 12/M02 A3036


Wind From 090°
Speed 06 kn.

 
 
jpsmedia.com for Web Design worldairports.se 2018   terms of use